sensor_id;sensor_type;location;lat;lon;timestamp;pressure;altitude;pressure_sealevel;temperature;humidity
65666;BME280;52365;47.464;18.976;2023-04-27T00:00:16;99936.34;;;6.49;52.91
65666;BME280;52365;47.464;18.976;2023-04-27T00:00:37;99935.69;;;6.45;52.73
65666;BME280;52365;47.464;18.976;2023-04-27T00:00:58;99939.81;;;6.33;52.89
65666;BME280;52365;47.464;18.976;2023-04-27T00:01:19;99936.22;;;6.23;52.81
65666;BME280;52365;47.464;18.976;2023-04-27T00:01:40;99940.87;;;6.36;52.80
65666;BME280;52365;47.464;18.976;2023-04-27T00:02:01;99930.81;;;6.72;51.79
65666;BME280;52365;47.464;18.976;2023-04-27T00:02:17;99940.94;;;6.65;51.57
65666;BME280;52365;47.464;18.976;2023-04-27T00:02:38;99941.25;;;6.67;51.64
65666;BME280;52365;47.464;18.976;2023-04-27T00:02:59;99943.47;;;6.55;52.08
65666;BME280;52365;47.464;18.976;2023-04-27T00:03:25;99941.13;;;6.57;52.10
65666;BME280;52365;47.464;18.976;2023-04-27T00:03:46;99934.59;;;6.59;52.04
65666;BME280;52365;47.464;18.976;2023-04-27T00:04:07;99934.94;;;6.44;52.62
65666;BME280;52365;47.464;18.976;2023-04-27T00:04:28;99937.09;;;6.49;52.54
65666;BME280;52365;47.464;18.976;2023-04-27T00:04:49;99937.69;;;6.41;53.30
65666;BME280;52365;47.464;18.976;2023-04-27T00:05:10;99937.88;;;6.34;52.71
65666;BME280;52365;47.464;18.976;2023-04-27T00:05:36;99944.06;;;6.47;52.40
65666;BME280;52365;47.464;18.976;2023-04-27T00:05:58;99937.72;;;6.24;52.31
65666;BME280;52365;47.464;18.976;2023-04-27T00:06:19;99939.97;;;6.10;52.71
65666;BME280;52365;47.464;18.976;2023-04-27T00:06:41;99946.84;;;6.11;52.64
65666;BME280;52365;47.464;18.976;2023-04-27T00:07:02;99943.09;;;6.24;52.53
65666;BME280;52365;47.464;18.976;2023-04-27T00:07:23;99937.88;;;6.50;52.18
65666;BME280;52365;47.464;18.976;2023-04-27T00:07:45;99941.09;;;6.74;51.43
65666;BME280;52365;47.464;18.976;2023-04-27T00:08:07;99939.66;;;6.86;50.87
65666;BME280;52365;47.464;18.976;2023-04-27T00:08:28;99937.38;;;6.84;50.34
65666;BME280;52365;47.464;18.976;2023-04-27T00:08:49;99943.34;;;6.75;50.37
65666;BME280;52365;47.464;18.976;2023-04-27T00:09:10;99937.63;;;6.90;50.45
65666;BME280;52365;47.464;18.976;2023-04-27T00:09:31;99933.84;;;7.16;50.15
65666;BME280;52365;47.464;18.976;2023-04-27T00:09:52;99938.50;;;7.41;49.46
65666;BME280;52365;47.464;18.976;2023-04-27T00:10:13;99938.94;;;7.40;49.32
65666;BME280;52365;47.464;18.976;2023-04-27T00:10:34;99942.09;;;7.22;49.46
65666;BME280;52365;47.464;18.976;2023-04-27T00:10:55;99936.97;;;7.27;49.58
65666;BME280;52365;47.464;18.976;2023-04-27T00:11:16;99941.84;;;7.03;49.64
65666;BME280;52365;47.464;18.976;2023-04-27T00:11:37;99933.94;;;6.84;50.13
65666;BME280;52365;47.464;18.976;2023-04-27T00:11:58;99933.19;;;6.83;50.38
65666;BME280;52365;47.464;18.976;2023-04-27T00:12:19;99936.91;;;6.73;50.29
65666;BME280;52365;47.464;18.976;2023-04-27T00:12:40;99940.37;;;6.57;51.54
65666;BME280;52365;47.464;18.976;2023-04-27T00:13:02;99946.59;;;6.38;51.99
65666;BME280;52365;47.464;18.976;2023-04-27T00:13:23;99939.47;;;6.47;51.89
65666;BME280;52365;47.464;18.976;2023-04-27T00:13:44;99938.53;;;6.54;51.81
65666;BME280;52365;47.464;18.976;2023-04-27T00:14:05;99939.53;;;6.60;51.78
65666;BME280;52365;47.464;18.976;2023-04-27T00:14:26;99933.44;;;6.43;52.69
65666;BME280;52365;47.464;18.976;2023-04-27T00:14:48;99953.03;;;6.24;54.18
65666;BME280;52365;47.464;18.976;2023-04-27T00:15:10;99945.75;;;6.24;54.63
65666;BME280;52365;47.464;18.976;2023-04-27T00:15:31;99940.91;;;6.19;55.56
65666;BME280;52365;47.464;18.976;2023-04-27T00:15:47;99942.66;;;6.42;54.96
65666;BME280;52365;47.464;18.976;2023-04-27T00:16:08;99951.06;;;6.57;54.55
65666;BME280;52365;47.464;18.976;2023-04-27T00:16:29;99951.38;;;6.75;53.90
65666;BME280;52365;47.464;18.976;2023-04-27T00:16:50;99949.34;;;6.79;53.32
65666;BME280;52365;47.464;18.976;2023-04-27T00:17:11;99946.16;;;6.85;52.96
65666;BME280;52365;47.464;18.976;2023-04-27T00:17:32;99947.03;;;6.81;52.61
65666;BME280;52365;47.464;18.976;2023-04-27T00:17:53;99945.00;;;6.86;52.44
65666;BME280;52365;47.464;18.976;2023-04-27T00:18:14;99948.22;;;6.93;52.15
65666;BME280;52365;47.464;18.976;2023-04-27T00:18:35;99946.78;;;7.05;51.80
65666;BME280;52365;47.464;18.976;2023-04-27T00:18:57;99943.47;;;7.14;51.34
65666;BME280;52365;47.464;18.976;2023-04-27T00:19:18;99940.19;;;7.22;50.96
65666;BME280;52365;47.464;18.976;2023-04-27T00:19:35;99940.81;;;7.14;51.03
65666;BME280;52365;47.464;18.976;2023-04-27T00:19:56;99948.88;;;6.97;51.29
65666;BME280;52365;47.464;18.976;2023-04-27T00:20:18;99940.06;;;6.84;51.57
65666;BME280;52365;47.464;18.976;2023-04-27T00:20:39;99944.19;;;6.72;51.61
65666;BME280;52365;47.464;18.976;2023-04-27T00:21:00;99948.69;;;6.75;51.92
65666;BME280;52365;47.464;18.976;2023-04-27T00:21:21;99946.69;;;6.79;51.83
65666;BME280;52365;47.464;18.976;2023-04-27T00:21:42;99946.91;;;6.56;52.79
65666;BME280;52365;47.464;18.976;2023-04-27T00:22:03;99949.63;;;6.69;52.75
65666;BME280;52365;47.464;18.976;2023-04-27T00:22:24;99945.16;;;6.33;53.39
65666;BME280;52365;47.464;18.976;2023-04-27T00:22:46;99946.94;;;6.23;54.40
65666;BME280;52365;47.464;18.976;2023-04-27T00:23:07;99944.44;;;6.33;54.55
65666;BME280;52365;47.464;18.976;2023-04-27T00:23:28;99947.06;;;6.49;54.16
65666;BME280;52365;47.464;18.976;2023-04-27T00:23:49;99949.09;;;6.28;55.09
65666;BME280;52365;47.464;18.976;2023-04-27T00:24:10;99950.53;;;6.17;55.26
65666;BME280;52365;47.464;18.976;2023-04-27T00:24:31;99944.66;;;6.22;55.23
65666;BME280;52365;47.464;18.976;2023-04-27T00:24:52;99942.06;;;6.35;54.99
65666;BME280;52365;47.464;18.976;2023-04-27T00:25:13;99944.31;;;6.52;54.50
65666;BME280;52365;47.464;18.976;2023-04-27T00:25:34;99942.69;;;6.71;53.89
65666;BME280;52365;47.464;18.976;2023-04-27T00:25:55;99944.72;;;6.96;53.07
65666;BME280;52365;47.464;18.976;2023-04-27T00:26:16;99942.25;;;6.89;52.40
65666;BME280;52365;47.464;18.976;2023-04-27T00:26:37;99946.50;;;6.87;52.52
65666;BME280;52365;47.464;18.976;2023-04-27T00:26:58;99944.50;;;6.74;51.95
65666;BME280;52365;47.464;18.976;2023-04-27T00:27:19;99943.72;;;6.61;51.98
65666;BME280;52365;47.464;18.976;2023-04-27T00:27:40;99949.75;;;6.49;52.31
65666;BME280;52365;47.464;18.976;2023-04-27T00:28:01;99942.63;;;6.59;52.40
65666;BME280;52365;47.464;18.976;2023-04-27T00:28:22;99943.47;;;6.55;52.41
65666;BME280;52365;47.464;18.976;2023-04-27T00:28:38;99948.31;;;6.44;52.83
65666;BME280;52365;47.464;18.976;2023-04-27T00:28:54;99947.56;;;6.44;53.14
65666;BME280;52365;47.464;18.976;2023-04-27T00:29:15;99941.97;;;6.54;53.02
65666;BME280;52365;47.464;18.976;2023-04-27T00:29:37;99942.69;;;6.71;52.56
65666;BME280;52365;47.464;18.976;2023-04-27T00:30:02;99941.38;;;6.63;52.31
65666;BME280;52365;47.464;18.976;2023-04-27T00:30:24;99944.38;;;6.65;52.40
65666;BME280;52365;47.464;18.976;2023-04-27T00:30:45;99949.91;;;6.58;52.50
65666;BME280;52365;47.464;18.976;2023-04-27T00:31:06;99942.28;;;6.56;52.80
65666;BME280;52365;47.464;18.976;2023-04-27T00:31:27;99947.47;;;6.64;52.77
65666;BME280;52365;47.464;18.976;2023-04-27T00:31:48;99943.53;;;6.68;52.55
65666;BME280;52365;47.464;18.976;2023-04-27T00:32:04;99942.72;;;6.55;52.85
65666;BME280;52365;47.464;18.976;2023-04-27T00:32:25;99944.81;;;6.64;53.02
65666;BME280;52365;47.464;18.976;2023-04-27T00:32:46;99944.19;;;6.72;52.90
65666;BME280;52365;47.464;18.976;2023-04-27T00:33:07;99941.97;;;6.84;52.73
65666;BME280;52365;47.464;18.976;2023-04-27T00:33:28;99940.72;;;6.88;52.50
65666;BME280;52365;47.464;18.976;2023-04-27T00:33:49;99944.25;;;6.85;52.89
65666;BME280;52365;47.464;18.976;2023-04-27T00:34:10;99941.97;;;6.84;52.53
65666;BME280;52365;47.464;18.976;2023-04-27T00:34:31;99944.66;;;6.84;52.33
65666;BME280;52365;47.464;18.976;2023-04-27T00:34:52;99938.09;;;6.72;52.52
65666;BME280;52365;47.464;18.976;2023-04-27T00:35:13;99937.97;;;6.75;52.50
65666;BME280;52365;47.464;18.976;2023-04-27T00:35:35;99938.97;;;6.81;52.35
65666;BME280;52365;47.464;18.976;2023-04-27T00:35:59;99939.13;;;6.91;52.09
65666;BME280;52365;47.464;18.976;2023-04-27T00:36:21;99931.44;;;7.05;51.70
65666;BME280;52365;47.464;18.976;2023-04-27T00:36:42;99935.62;;;7.06;51.55
65666;BME280;52365;47.464;18.976;2023-04-27T00:37:04;99939.09;;;7.20;51.30
65666;BME280;52365;47.464;18.976;2023-04-27T00:37:25;99934.63;;;7.29;50.65
65666;BME280;52365;47.464;18.976;2023-04-27T00:37:46;99938.06;;;7.30;50.34
65666;BME280;52365;47.464;18.976;2023-04-27T00:38:07;99933.37;;;7.05;50.62
65666;BME280;52365;47.464;18.976;2023-04-27T00:38:28;99940.16;;;6.80;51.49
65666;BME280;52365;47.464;18.976;2023-04-27T00:38:50;99932.19;;;6.48;51.94
65666;BME280;52365;47.464;18.976;2023-04-27T00:39:06;99942.91;;;6.31;52.38
65666;BME280;52365;47.464;18.976;2023-04-27T00:39:27;99941.47;;;6.27;52.62
65666;BME280;52365;47.464;18.976;2023-04-27T00:39:48;99943.00;;;6.28;53.10
65666;BME280;52365;47.464;18.976;2023-04-27T00:40:09;99942.34;;;6.24;53.93
65666;BME280;52365;47.464;18.976;2023-04-27T00:40:31;99940.47;;;6.37;53.59
65666;BME280;52365;47.464;18.976;2023-04-27T00:41:02;99934.78;;;6.51;53.22
65666;BME280;52365;47.464;18.976;2023-04-27T00:41:23;99939.16;;;6.29;53.33
65666;BME280;52365;47.464;18.976;2023-04-27T00:41:44;99939.56;;;6.27;54.30
65666;BME280;52365;47.464;18.976;2023-04-27T00:42:00;99941.31;;;6.34;54.22
65666;BME280;52365;47.464;18.976;2023-04-27T00:42:21;99944.06;;;6.30;54.48
65666;BME280;52365;47.464;18.976;2023-04-27T00:42:44;99940.56;;;6.34;54.41
65666;BME280;52365;47.464;18.976;2023-04-27T00:43:05;99941.91;;;6.42;54.13
65666;BME280;52365;47.464;18.976;2023-04-27T00:43:26;99935.03;;;6.41;54.06
65666;BME280;52365;47.464;18.976;2023-04-27T00:43:45;99944.91;;;6.44;54.08
65666;BME280;52365;47.464;18.976;2023-04-27T00:44:06;99941.47;;;6.27;54.18
65666;BME280;52365;47.464;18.976;2023-04-27T00:44:27;99951.03;;;6.12;55.11
65666;BME280;52365;47.464;18.976;2023-04-27T00:44:48;99947.25;;;6.09;55.60
65666;BME280;52365;47.464;18.976;2023-04-27T00:45:09;99942.56;;;5.97;55.76
65666;BME280;52365;47.464;18.976;2023-04-27T00:45:31;99939.97;;;5.93;55.53
65666;BME280;52365;47.464;18.976;2023-04-27T00:45:52;99941.06;;;6.12;55.29
65666;BME280;52365;47.464;18.976;2023-04-27T00:46:13;99938.06;;;6.26;54.83
65666;BME280;52365;47.464;18.976;2023-04-27T00:46:35;99939.31;;;6.38;54.36
65666;BME280;52365;47.464;18.976;2023-04-27T00:46:57;99940.56;;;6.17;54.49
65666;BME280;52365;47.464;18.976;2023-04-27T00:47:18;99940.72;;;6.43;54.36
65666;BME280;52365;47.464;18.976;2023-04-27T00:47:39;99939.16;;;6.74;53.56
65666;BME280;52365;47.464;18.976;2023-04-27T00:48:01;99940.41;;;6.86;52.91
65666;BME280;52365;47.464;18.976;2023-04-27T00:48:22;99928.88;;;6.73;52.47
65666;BME280;52365;47.464;18.976;2023-04-27T00:48:43;99933.34;;;6.47;53.36
65666;BME280;52365;47.464;18.976;2023-04-27T00:49:04;99933.78;;;6.45;53.67
65666;BME280;52365;47.464;18.976;2023-04-27T00:49:26;99936.19;;;6.56;53.51
65666;BME280;52365;47.464;18.976;2023-04-27T00:49:42;99936.03;;;6.63;53.21
65666;BME280;52365;47.464;18.976;2023-04-27T00:50:04;99935.59;;;6.65;53.05
65666;BME280;52365;47.464;18.976;2023-04-27T00:50:28;99941.25;;;6.67;52.91
65666;BME280;52365;47.464;18.976;2023-04-27T00:50:49;99934.19;;;6.60;52.85
65666;BME280;52365;47.464;18.976;2023-04-27T00:51:11;99932.94;;;6.32;53.14
65666;BME280;52365;47.464;18.976;2023-04-27T00:51:32;99939.06;;;6.16;54.13
65666;BME280;52365;47.464;18.976;2023-04-27T00:51:53;99935.19;;;6.01;55.15
65666;BME280;52365;47.464;18.976;2023-04-27T00:52:14;99937.56;;;5.99;55.61
65666;BME280;52365;47.464;18.976;2023-04-27T00:52:35;99933.19;;;5.89;56.00
65666;BME280;52365;47.464;18.976;2023-04-27T00:52:56;99931.59;;;5.55;56.87
65666;BME280;52365;47.464;18.976;2023-04-27T00:53:18;99937.75;;;5.36;57.43
65666;BME280;52365;47.464;18.976;2023-04-27T00:53:39;99935.88;;;5.33;58.10
65666;BME280;52365;47.464;18.976;2023-04-27T00:54:01;99936.56;;;5.37;58.05
65666;BME280;52365;47.464;18.976;2023-04-27T00:54:22;99933.06;;;5.40;57.96
65666;BME280;52365;47.464;18.976;2023-04-27T00:54:45;99937.94;;;5.45;57.94
65666;BME280;52365;47.464;18.976;2023-04-27T00:55:07;99936.41;;;5.44;57.77
65666;BME280;52365;47.464;18.976;2023-04-27T00:55:29;99937.25;;;5.41;57.40
65666;BME280;52365;47.464;18.976;2023-04-27T00:55:50;99934.78;;;5.30;57.77
65666;BME280;52365;47.464;18.976;2023-04-27T00:56:11;99935.25;;;5.45;57.81
65666;BME280;52365;47.464;18.976;2023-04-27T00:56:32;99939.28;;;5.53;57.59
65666;BME280;52365;47.464;18.976;2023-04-27T00:56:53;99940.81;;;5.54;57.40
65666;BME280;52365;47.464;18.976;2023-04-27T00:57:15;99942.38;;;5.51;57.14
65666;BME280;52365;47.464;18.976;2023-04-27T00:57:36;99943.59;;;5.47;57.43
65666;BME280;52365;47.464;18.976;2023-04-27T00:57:58;99931.03;;;5.64;57.22
65666;BME280;52365;47.464;18.976;2023-04-27T00:58:19;99938.59;;;5.85;56.56
65666;BME280;52365;47.464;18.976;2023-04-27T00:58:40;99933.47;;;5.74;56.03
65666;BME280;52365;47.464;18.976;2023-04-27T00:59:01;99939.50;;;5.78;55.98
65666;BME280;52365;47.464;18.976;2023-04-27T00:59:23;99930.03;;;5.74;55.86
65666;BME280;52365;47.464;18.976;2023-04-27T00:59:39;99936.66;;;5.69;55.98
65666;BME280;52365;47.464;18.976;2023-04-27T01:00:01;99937.12;;;5.64;56.22
65666;BME280;52365;47.464;18.976;2023-04-27T01:00:26;99930.69;;;5.62;56.55
65666;BME280;52365;47.464;18.976;2023-04-27T01:00:47;99941.56;;;5.54;56.50
65666;BME280;52365;47.464;18.976;2023-04-27T01:01:09;99935.94;;;5.49;56.64
65666;BME280;52365;47.464;18.976;2023-04-27T01:01:30;99938.53;;;5.52;56.89
65666;BME280;52365;47.464;18.976;2023-04-27T01:01:52;99936.28;;;5.51;56.96
65666;BME280;52365;47.464;18.976;2023-04-27T01:02:13;99939.44;;;5.46;56.90
65666;BME280;52365;47.464;18.976;2023-04-27T01:02:34;99933.59;;;5.51;56.51
65666;BME280;52365;47.464;18.976;2023-04-27T01:02:56;99935.62;;;5.63;56.49
65666;BME280;52365;47.464;18.976;2023-04-27T01:03:17;99935.97;;;5.65;56.36
65666;BME280;52365;47.464;18.976;2023-04-27T01:03:38;99940.25;;;5.63;56.29
65666;BME280;52365;47.464;18.976;2023-04-27T01:03:59;99942.31;;;5.55;56.52
65666;BME280;52365;47.464;18.976;2023-04-27T01:04:21;99933.34;;;5.45;56.76
65666;BME280;52365;47.464;18.976;2023-04-27T01:04:43;99934.09;;;5.46;56.87
65666;BME280;52365;47.464;18.976;2023-04-27T01:05:04;99937.69;;;5.55;56.97
65666;BME280;52365;47.464;18.976;2023-04-27T01:05:25;99935.31;;;5.77;56.44
65666;BME280;52365;47.464;18.976;2023-04-27T01:05:46;99933.41;;;5.78;55.75
65666;BME280;52365;47.464;18.976;2023-04-27T01:06:02;99935.00;;;5.75;55.44
65666;BME280;52365;47.464;18.976;2023-04-27T01:06:23;99933.78;;;5.60;55.87
65666;BME280;52365;47.464;18.976;2023-04-27T01:06:44;99939.75;;;5.48;56.36
65666;BME280;52365;47.464;18.976;2023-04-27T01:07:05;99939.69;;;5.51;56.25
65666;BME280;52365;47.464;18.976;2023-04-27T01:07:26;99927.44;;;5.54;55.96
65666;BME280;52365;47.464;18.976;2023-04-27T01:07:47;99930.78;;;5.58;55.44
65666;BME280;52365;47.464;18.976;2023-04-27T01:08:08;99939.81;;;5.64;55.19
65666;BME280;52365;47.464;18.976;2023-04-27T01:08:30;99939.09;;;5.44;55.94
65666;BME280;52365;47.464;18.976;2023-04-27T01:08:51;99935.34;;;5.21;56.96
65666;BME280;52365;47.464;18.976;2023-04-27T01:09:12;99934.59;;;5.41;56.86
65666;BME280;52365;47.464;18.976;2023-04-27T01:09:33;99933.00;;;5.43;56.65
65666;BME280;52365;47.464;18.976;2023-04-27T01:09:54;99933.53;;;5.54;56.40
65666;BME280;52365;47.464;18.976;2023-04-27T01:10:16;99936.31;;;5.67;56.03
65666;BME280;52365;47.464;18.976;2023-04-27T01:10:37;99935.91;;;5.69;55.61
65666;BME280;52365;47.464;18.976;2023-04-27T01:10:58;99930.91;;;5.71;55.38
65666;BME280;52365;47.464;18.976;2023-04-27T01:11:19;99935.72;;;5.60;55.45
65666;BME280;52365;47.464;18.976;2023-04-27T01:11:40;99943.41;;;5.74;55.39
65666;BME280;52365;47.464;18.976;2023-04-27T01:12:01;99935.06;;;5.88;55.01
65666;BME280;52365;47.464;18.976;2023-04-27T01:12:22;99929.97;;;5.77;55.05
65666;BME280;52365;47.464;18.976;2023-04-27T01:12:38;99937.94;;;5.81;55.07
65666;BME280;52365;47.464;18.976;2023-04-27T01:13:00;99934.69;;;5.90;54.87
65666;BME280;52365;47.464;18.976;2023-04-27T01:13:21;99934.63;;;5.93;54.61
65666;BME280;52365;47.464;18.976;2023-04-27T01:13:43;99937.41;;;6.06;54.19
65666;BME280;52365;47.464;18.976;2023-04-27T01:14:03;99929.47;;;5.82;54.54
65666;BME280;52365;47.464;18.976;2023-04-27T01:14:24;99933.66;;;5.84;54.94
65666;BME280;52365;47.464;18.976;2023-04-27T01:14:45;99931.81;;;5.80;55.30
65666;BME280;52365;47.464;18.976;2023-04-27T01:15:07;99935.13;;;6.04;55.02
65666;BME280;52365;47.464;18.976;2023-04-27T01:15:28;99933.13;;;6.25;54.47
65666;BME280;52365;47.464;18.976;2023-04-27T01:15:49;99936.88;;;6.27;54.09
65666;BME280;52365;47.464;18.976;2023-04-27T01:16:10;99933.69;;;6.00;54.38
65666;BME280;52365;47.464;18.976;2023-04-27T01:16:32;99936.19;;;5.91;54.68
65666;BME280;52365;47.464;18.976;2023-04-27T01:16:53;99935.19;;;5.85;54.78
65666;BME280;52365;47.464;18.976;2023-04-27T01:17:14;99936.81;;;5.62;55.30
65666;BME280;52365;47.464;18.976;2023-04-27T01:17:35;99933.28;;;5.49;55.84
65666;BME280;52365;47.464;18.976;2023-04-27T01:17:59;99935.03;;;5.55;55.93
65666;BME280;52365;47.464;18.976;2023-04-27T01:18:21;99935.84;;;5.52;55.80
65666;BME280;52365;47.464;18.976;2023-04-27T01:18:41;99933.41;;;5.42;56.11
65666;BME280;52365;47.464;18.976;2023-04-27T01:19:04;99938.50;;;5.36;56.41
65666;BME280;52365;47.464;18.976;2023-04-27T01:19:25;99934.50;;;5.44;56.36
65666;BME280;52365;47.464;18.976;2023-04-27T01:19:46;99934.28;;;5.55;56.10
65666;BME280;52365;47.464;18.976;2023-04-27T01:20:07;99933.59;;;5.51;55.98
65666;BME280;52365;47.464;18.976;2023-04-27T01:20:29;99934.97;;;5.39;56.09
65666;BME280;52365;47.464;18.976;2023-04-27T01:20:50;99935.34;;;5.21;56.67
65666;BME280;52365;47.464;18.976;2023-04-27T01:21:11;99937.88;;;5.28;56.78
65666;BME280;52365;47.464;18.976;2023-04-27T01:21:27;99936.41;;;5.44;56.45
65666;BME280;52365;47.464;18.976;2023-04-27T01:21:48;99937.31;;;5.73;55.80
65666;BME280;52365;47.464;18.976;2023-04-27T01:22:12;99949.75;;;6.00;54.78
65666;BME280;52365;47.464;18.976;2023-04-27T01:22:35;99944.09;;;5.98;54.37
65666;BME280;52365;47.464;18.976;2023-04-27T01:22:57;99940.19;;;5.82;54.51
65666;BME280;52365;47.464;18.976;2023-04-27T01:23:18;99933.66;;;5.67;55.40
65666;BME280;52365;47.464;18.976;2023-04-27T01:23:39;99938.72;;;5.62;55.50
65666;BME280;52365;47.464;18.976;2023-04-27T01:24:00;99946.16;;;5.54;55.65
65666;BME280;52365;47.464;18.976;2023-04-27T01:24:21;99941.84;;;5.40;55.78
65666;BME280;52365;47.464;18.976;2023-04-27T01:24:42;99942.88;;;5.26;56.34
65666;BME280;52365;47.464;18.976;2023-04-27T01:24:58;99944.09;;;5.42;56.45
65666;BME280;52365;47.464;18.976;2023-04-27T01:25:19;99945.91;;;5.28;57.38
65666;BME280;52365;47.464;18.976;2023-04-27T01:25:40;99945.97;;;5.25;57.79
65666;BME280;52365;47.464;18.976;2023-04-27T01:26:01;99941.66;;;5.11;57.94
65666;BME280;52365;47.464;18.976;2023-04-27T01:26:22;99940.69;;;5.01;57.99
65666;BME280;52365;47.464;18.976;2023-04-27T01:26:43;99939.31;;;5.13;58.25
65666;BME280;52365;47.464;18.976;2023-04-27T01:27:04;99941.38;;;5.25;57.75
65666;BME280;52365;47.464;18.976;2023-04-27T01:27:26;99941.44;;;5.42;57.30
65666;BME280;52365;47.464;18.976;2023-04-27T01:27:47;99943.81;;;5.56;56.70
65666;BME280;52365;47.464;18.976;2023-04-27T01:28:08;99942.50;;;5.44;56.30
65666;BME280;52365;47.464;18.976;2023-04-27T01:28:29;99944.47;;;5.24;56.96
65666;BME280;52365;47.464;18.976;2023-04-27T01:28:51;99939.53;;;5.02;57.65
65666;BME280;52365;47.464;18.976;2023-04-27T01:29:12;99947.06;;;5.08;58.35
65666;BME280;52365;47.464;18.976;2023-04-27T01:29:33;99946.72;;;5.25;57.88
65666;BME280;52365;47.464;18.976;2023-04-27T01:29:54;99946.59;;;5.33;57.51
65666;BME280;52365;47.464;18.976;2023-04-27T01:30:16;99951.56;;;5.30;57.39
65666;BME280;52365;47.464;18.976;2023-04-27T01:30:38;99940.69;;;5.21;57.76
65666;BME280;52365;47.464;18.976;2023-04-27T01:30:59;99943.31;;;5.05;58.56
65666;BME280;52365;47.464;18.976;2023-04-27T01:31:21;99939.31;;;4.93;58.90
65666;BME280;52365;47.464;18.976;2023-04-27T01:31:42;99948.19;;;4.87;59.00
65666;BME280;52365;47.464;18.976;2023-04-27T01:32:04;99943.59;;;4.87;59.24
65666;BME280;52365;47.464;18.976;2023-04-27T01:32:25;99945.47;;;4.90;59.43
65666;BME280;52365;47.464;18.976;2023-04-27T01:32:46;99945.69;;;4.79;59.87
65666;BME280;52365;47.464;18.976;2023-04-27T01:33:07;99948.19;;;4.87;59.85
65666;BME280;52365;47.464;18.976;2023-04-27T01:33:28;99950.47;;;4.88;59.67
65666;BME280;52365;47.464;18.976;2023-04-27T01:33:49;99945.19;;;4.85;59.50
65666;BME280;52365;47.464;18.976;2023-04-27T01:34:10;99949.59;;;4.95;59.14
65666;BME280;52365;47.464;18.976;2023-04-27T01:34:32;99959.25;;;5.09;58.73
65666;BME280;52365;47.464;18.976;2023-04-27T01:34:53;99949.31;;;5.09;58.64
65666;BME280;52365;47.464;18.976;2023-04-27T01:35:14;99952.91;;;5.22;58.29
65666;BME280;52365;47.464;18.976;2023-04-27T01:35:35;99949.09;;;5.40;57.76
65666;BME280;52365;47.464;18.976;2023-04-27T01:35:57;99954.25;;;5.30;57.26
65666;BME280;52365;47.464;18.976;2023-04-27T01:36:18;99954.53;;;5.16;57.88
65666;BME280;52365;47.464;18.976;2023-04-27T01:36:39;99957.75;;;5.08;58.21
65666;BME280;52365;47.464;18.976;2023-04-27T01:37:01;99951.59;;;5.11;58.38
65666;BME280;52365;47.464;18.976;2023-04-27T01:37:22;99955.28;;;5.17;58.15
65666;BME280;52365;47.464;18.976;2023-04-27T01:37:43;99952.34;;;5.11;58.67
65666;BME280;52365;47.464;18.976;2023-04-27T01:38:00;99952.06;;;5.05;58.58
65666;BME280;52365;47.464;18.976;2023-04-27T01:38:22;99958.09;;;5.10;58.59
65666;BME280;52365;47.464;18.976;2023-04-27T01:38:44;99949.25;;;5.13;58.63
65666;BME280;52365;47.464;18.976;2023-04-27T01:39:02;99957.47;;;5.22;58.49
65666;BME280;52365;47.464;18.976;2023-04-27T01:39:24;99950.13;;;5.46;58.00
65666;BME280;52365;47.464;18.976;2023-04-27T01:39:45;99958.09;;;5.49;57.25
65666;BME280;52365;47.464;18.976;2023-04-27T01:40:06;99953.97;;;5.45;56.97
65666;BME280;52365;47.464;18.976;2023-04-27T01:40:28;99954.53;;;5.36;56.95
65666;BME280;52365;47.464;18.976;2023-04-27T01:40:49;99954.72;;;5.25;57.29
65666;BME280;52365;47.464;18.976;2023-04-27T01:41:10;99952.94;;;5.39;57.29
65666;BME280;52365;47.464;18.976;2023-04-27T01:41:31;99950.94;;;5.43;57.22
65666;BME280;52365;47.464;18.976;2023-04-27T01:41:52;99948.75;;;5.38;57.30
65666;BME280;52365;47.464;18.976;2023-04-27T01:42:13;99950.88;;;5.26;57.57
65666;BME280;52365;47.464;18.976;2023-04-27T01:42:34;99952.34;;;5.11;58.31
65666;BME280;52365;47.464;18.976;2023-04-27T01:42:55;99961.22;;;5.04;58.95
65666;BME280;52365;47.464;18.976;2023-04-27T01:43:16;99951.16;;;4.92;59.32
65666;BME280;52365;47.464;18.976;2023-04-27T01:43:38;99949.53;;;4.98;59.34
65666;BME280;52365;47.464;18.976;2023-04-27T01:43:59;99954.31;;;5.07;59.16
65666;BME280;52365;47.464;18.976;2023-04-27T01:44:20;99954.31;;;5.07;59.21
65666;BME280;52365;47.464;18.976;2023-04-27T01:44:42;99957.41;;;5.25;58.79
65666;BME280;52365;47.464;18.976;2023-04-27T01:45:04;99964.31;;;5.43;58.18
65666;BME280;52365;47.464;18.976;2023-04-27T01:45:25;99956.66;;;5.45;57.51
65666;BME280;52365;47.464;18.976;2023-04-27T01:45:46;99957.41;;;5.25;58.01
65666;BME280;52365;47.464;18.976;2023-04-27T01:46:10;99958.91;;;5.26;58.14
65666;BME280;52365;47.464;18.976;2023-04-27T01:46:31;99959.59;;;5.30;58.02
65666;BME280;52365;47.464;18.976;2023-04-27T01:46:52;99953.81;;;5.52;57.59
65666;BME280;52365;47.464;18.976;2023-04-27T01:47:17;99966.00;;;5.53;57.38
65666;BME280;52365;47.464;18.976;2023-04-27T01:47:38;99964.31;;;5.43;57.00
65666;BME280;52365;47.464;18.976;2023-04-27T01:47:59;99962.34;;;5.27;57.27
65666;BME280;52365;47.464;18.976;2023-04-27T01:48:21;99958.06;;;4.90;58.23
65666;BME280;52365;47.464;18.976;2023-04-27T01:48:42;99970.44;;;4.80;58.84
65666;BME280;52365;47.464;18.976;2023-04-27T01:49:03;99958.97;;;4.83;59.28
65666;BME280;52365;47.464;18.976;2023-04-27T01:49:24;99962.66;;;4.89;59.34
65666;BME280;52365;47.464;18.976;2023-04-27T01:49:45;99961.56;;;4.87;59.13
65666;BME280;52365;47.464;18.976;2023-04-27T01:50:06;99958.19;;;4.83;59.08
65666;BME280;52365;47.464;18.976;2023-04-27T01:50:27;99959.50;;;4.94;58.90
65666;BME280;52365;47.464;18.976;2023-04-27T01:50:48;99962.25;;;4.91;59.12
65666;BME280;52365;47.464;18.976;2023-04-27T01:51:09;99962.16;;;4.74;60.04
65666;BME280;52365;47.464;18.976;2023-04-27T01:51:30;99953.63;;;4.83;60.08
65666;BME280;52365;47.464;18.976;2023-04-27T01:51:52;99964.31;;;5.03;59.67